»·PEaware :: N235B L88-KSBP

N235B :: L88-KSBP

FLIGHT INFORMATION

Flight Status: Arrived
Operator: Privately registered:
United States
More flights under this callsign
Pilot: Jason D. (29273)
Aircraft: CESSNA 172 SKYHAWK
(C172)
More flights by this aircraft type
Origin: L88 New Cuyama
United States
Destination: KSBP San Luis Co Regl
United States
More flights between these airports :: More routes between these airports
Route: L88 DCT KSBP
File this flight plan on PilotEdge
Remarks: CAT-2 Practice. Please inform pass / fail
Altitude:
(Current/Filed)
3,000ft
Speed:
(Current/Filed)
120kts
Departed: 02-Aug-20 01:17 PM
Arrived: 02-Aug-20 01:53 PM
Distance/Time
Traveled:
50nm/0:36
Distance/Time
To Go:
Arrived

Flight Plot

Page will automatically refresh every two minutes.

Flight plan parsing failed; only flown route is shown


Map Options




Map Legend


Flown Route
Filed Route
Departure Airport
Arrival Airport
Navaid (VOR, NDB)
Fix

Horizontal Profiles

Position Reports

Time Latitude Longitude Heading Altitude Ground
Speed
02-Aug-20 13:04 34.942854 -119.690285 204 2156ft 0kts
02-Aug-20 13:05 34.942853 -119.690285 204 2156ft 0kts
02-Aug-20 13:06 34.942853 -119.690285 204 2156ft 0kts
02-Aug-20 13:07 34.942853 -119.690285 204 2156ft 0kts
02-Aug-20 13:08 34.942853 -119.690285 204 2156ft 0kts
02-Aug-20 13:09 34.942853 -119.690285 204 2156ft 0kts
02-Aug-20 13:10 34.942853 -119.690285 204 2156ft 0kts
02-Aug-20 13:11 34.942533 -119.691205 152 2155ft 2kts
02-Aug-20 13:12 34.942199 -119.691010 120 2156ft 0kts
02-Aug-20 13:13 34.942199 -119.691010 120 2156ft 0kts
02-Aug-20 13:14 34.942199 -119.691010 120 2156ft 0kts
02-Aug-20 13:15 34.942053 -119.690663 117 2157ft 21kts
02-Aug-20 13:16 34.934604 -119.672340 114 2395ft 70kts
02-Aug-20 13:17 34.935080 -119.645725 92 2682ft 90kts
02-Aug-20 13:18 34.950862 -119.640951 295 2914ft 74kts
02-Aug-20 13:19 34.959265 -119.665483 281 2985ft 84kts
02-Aug-20 13:20 34.965060 -119.694163 280 2983ft 88kts
02-Aug-20 13:21 34.970998 -119.723262 280 2982ft 88kts
02-Aug-20 13:22 34.977035 -119.752400 280 2982ft 89kts
02-Aug-20 13:23 34.983164 -119.781620 280 2979ft 88kts
02-Aug-20 13:24 34.989271 -119.810714 280 2981ft 88kts
02-Aug-20 13:25 34.995244 -119.839218 281 2980ft 89kts
02-Aug-20 13:26 35.001358 -119.868430 281 2977ft 88kts
02-Aug-20 13:27 35.012139 -119.895629 299 2977ft 90kts
02-Aug-20 13:28 35.025989 -119.921443 299 2984ft 91kts
02-Aug-20 13:29 35.039889 -119.947434 299 2981ft 91kts
02-Aug-20 13:30 35.053698 -119.973343 299 2983ft 91kts
02-Aug-20 13:31 35.067429 -119.999290 299 2985ft 90kts
02-Aug-20 13:32 35.080977 -120.025201 299 2990ft 90kts
02-Aug-20 13:33 35.094280 -120.051083 299 2994ft 90kts
02-Aug-20 13:34 35.107396 -120.077045 299 2997ft 89kts
02-Aug-20 13:35 35.111260 -120.105404 262 3000ft 89kts
02-Aug-20 13:36 35.106982 -120.139233 263 3007ft 110kts
02-Aug-20 13:37 35.102643 -120.176528 265 3003ft 109kts
02-Aug-20 13:38 35.106817 -120.215054 290 3033ft 118kts
02-Aug-20 13:39 35.118436 -120.252858 292 3025ft 119kts
02-Aug-20 13:40 35.130006 -120.290861 293 3029ft 119kts
02-Aug-20 13:41 35.141852 -120.328782 293 3027ft 119kts
02-Aug-20 13:42 35.153643 -120.366697 289 3023ft 117kts
02-Aug-20 13:43 35.163696 -120.401081 293 3025ft 102kts
02-Aug-20 13:44 35.173231 -120.433477 291 3024ft 100kts
02-Aug-20 13:45 35.182978 -120.465214 292 3021ft 99kts
02-Aug-20 13:46 35.192840 -120.496864 291 2998ft 101kts
02-Aug-20 13:47 35.198910 -120.531906 283 2459ft 111kts
02-Aug-20 13:48 35.204964 -120.568823 284 1834ft 90kts
02-Aug-20 13:49 35.212797 -120.596576 294 1398ft 74kts
02-Aug-20 13:50 35.223321 -120.617686 306 878ft 67kts
02-Aug-20 13:52 35.233726 -120.634857 305 218ft 49kts
02-Aug-20 13:53 35.237479 -120.639903 4 216ft 0kts
02-Aug-20 13:54 35.237479 -120.639903 4 216ft 0kts
02-Aug-20 13:55 35.239559 -120.643002 306 216ft 10kts
02-Aug-20 13:56 35.240106 -120.642550 116 216ft 0kts
02-Aug-20 13:57 35.240106 -120.642550 116 216ft 0kts
02-Aug-20 13:58 35.240106 -120.642550 116 216ft 0kts

Navigation Log

Ident Type
Flight plan parsing failed, navigation log unavailable